Time;durP1;ratioP1;P1;durP2;ratioP2;P2;SDS_P1;SDS_P2;PMS_P1;PMS_P2;Temp;Humidity;BMP_temperature;BMP_pressure;BME280_temperature;BME280_humidity;BME280_pressure;Samples;Min_cycle;Max_cycle;Signal;HPM_P1;HPM_P2
2022/09/14 00:01:33;;;;;;;30.42;15.80;;;15.90;99.90;;;;;;5073830;28;20051;-79
2022/09/14 00:04:07;;;;;;;33.30;15.32;;;15.90;99.90;;;;;;5075009;28;20050;-79
2022/09/14 00:06:35;;;;;;;35.35;15.77;;;15.90;99.90;;;;;;5057600;28;20052;-79
2022/09/14 00:09:05;;;;;;;40.67;17.90;;;15.80;99.90;;;;;;5039796;28;20382;-78
2022/09/14 00:11:35;;;;;;;40.10;17.35;;;15.90;99.90;;;;;;5057398;28;20501;-77
2022/09/14 00:14:03;;;;;;;41.97;15.65;;;15.90;99.90;;;;;;5056280;28;20131;-79
2022/09/14 00:16:34;;;;;;;36.47;15.02;;;15.90;99.90;;;;;;5057324;28;20045;-77
2022/09/14 00:19:24;;;;;;;42.63;15.98;;;15.80;99.90;;;;;;5074818;28;20041;-80
2022/09/14 00:21:54;;;;;;;33.13;13.18;;;15.90;99.90;;;;;;5056137;28;20371;-79
2022/09/14 00:24:26;;;;;;;32.25;14.52;;;15.90;99.90;;;;;;5057707;28;20075;-78
2022/09/14 00:26:54;;;;;;;24.38;14.85;;;15.90;99.90;;;;;;5073607;28;20490;-77
2022/09/14 00:29:22;;;;;;;40.80;16.80;;;14.70;99.90;;;;;;5057016;28;20048;-78
2022/09/14 00:31:50;;;;;;;36.63;16.55;;;15.90;99.90;;;;;;5056848;28;20040;-80
2022/09/14 00:34:18;;;;;;;26.00;12.38;;;15.90;99.90;;;;;;5073418;28;20040;-79
2022/09/14 00:36:47;;;;;;;25.02;12.68;;;15.90;99.90;;;;;;5057005;28;20044;-78
2022/09/14 00:39:17;;;;;;;36.40;13.30;;;15.90;99.90;;;;;;5074353;28;20052;-78
2022/09/14 00:41:46;;;;;;;26.25;11.77;;;15.90;99.90;;;;;;5073186;28;20052;-79
2022/09/14 00:44:14;;;;;;;29.85;10.75;;;15.90;99.90;;;;;;5057442;28;20040;-80
2022/09/14 00:46:52;;;;;;;19.42;9.60;;;15.90;99.90;;;;;;5078412;28;20045;-78
2022/09/14 00:49:28;;;;;;;20.52;8.98;;;15.90;99.90;;;;;;5078478;28;20049;-80
2022/09/14 00:52:11;;;;;;;24.52;9.57;;;15.90;99.90;;;;;;5078223;28;20044;-79
2022/09/14 00:54:55;;;;;;;19.75;7.93;;;15.90;99.90;;;;;;5077484;28;20040;-79
2022/09/14 00:57:24;;;;;;;23.88;8.25;;;15.90;99.90;;;;;;5078610;28;20044;-77
2022/09/14 00:59:52;;;;;;;22.80;7.82;;;15.80;99.90;;;;;;5078392;28;20040;-79
2022/09/14 01:02:23;;;;;;;20.38;7.10;;;15.80;99.90;;;;;;5077135;28;20463;-79
2022/09/14 01:04:51;;;;;;;21.83;7.03;;;15.80;99.90;;;;;;5061429;28;20044;-77
2022/09/14 01:07:30;;;;;;;28.48;7.95;;;15.80;99.90;;;;;;5077057;28;20051;-76
2022/09/14 01:10:19;;;;;;;19.08;6.70;;;15.80;99.90;;;;;;5060870;28;20064;-79
2022/09/14 01:13:16;;;;;;;14.13;6.63;;;15.80;99.90;;;;;;5078150;28;20056;-79
2022/09/14 01:16:03;;;;;;;16.73;6.68;;;15.80;99.90;;;;;;5076852;28;20051;-79
2022/09/14 01:18:43;;;;;;;17.33;7.28;;;15.80;99.90;;;;;;5077984;28;20045;-80
2022/09/14 01:21:22;;;;;;;19.92;6.75;;;15.80;99.90;;;;;;5059524;28;20395;-78
2022/09/14 01:23:59;;;;;;;17.73;6.35;;;15.70;99.90;;;;;;5061090;28;20048;-76
2022/09/14 01:26:48;;;;;;;25.55;8.13;;;15.70;99.90;;;;;;5060497;28;20051;-77
2022/09/14 01:29:24;;;;;;;23.45;7.75;;;15.70;99.90;;;;;;5060303;28;20047;-78
2022/09/14 01:32:15;;;;;;;19.42;7.75;;;15.70;99.90;;;;;;5078152;28;20052;-79
2022/09/14 01:35:06;;;;;;;24.67;8.73;;;15.70;99.90;;;;;;5076514;28;20048;-78
2022/09/14 01:38:01;;;;;;;24.63;10.07;;;15.70;99.90;;;;;;5060429;28;20474;-80
2022/09/14 01:40:44;;;;;;;26.38;10.23;;;15.70;99.90;;;;;;5059024;28;20315;-80
2022/09/14 01:43:25;;;;;;;26.85;10.68;;;15.70;99.90;;;;;;5077638;28;20048;-77
2022/09/14 01:45:57;;;;;;;25.80;10.38;;;15.70;99.90;;;;;;5060123;28;20052;-78
2022/09/14 01:48:32;;;;;;;27.10;10.68;;;15.20;99.90;;;;;;5075990;28;20378;-80
2022/09/14 01:51:04;;;;;;;28.88;11.25;;;15.70;99.90;;;;;;5058807;28;20052;-77
2022/09/14 01:53:39;;;;;;;30.08;11.23;;;15.60;99.90;;;;;;5075326;28;20049;-77
2022/09/14 01:56:21;;;;;;;35.50;10.63;;;15.60;99.90;;;;;;5075892;28;20051;-79
2022/09/14 01:59:03;;;;;;;24.30;9.43;;;15.60;99.90;;;;;;5076003;28;20037;-75
2022/09/14 02:01:38;;;;;;;33.13;10.85;;;15.60;99.90;;;;;;5057399;28;20036;-78
2022/09/14 02:04:13;;;;;;;25.58;9.98;;;15.60;99.90;;;;;;5058647;28;20501;-79
2022/09/14 02:06:44;;;;;;;21.92;6.88;;;15.60;99.90;;;;;;5076003;28;20048;-76
2022/09/14 02:09:17;;;;;;;16.75;6.20;;;15.60;99.90;;;;;;5074758;28;20045;-79
2022/09/14 02:11:45;;;;;;;16.85;5.60;;;15.60;99.90;;;;;;5076227;28;20052;-80
2022/09/14 02:14:13;;;;;;;16.17;4.72;;;15.60;99.90;;;;;;5041075;28;20049;-76
2022/09/14 02:16:44;;;;;;;19.35;4.93;;;15.60;99.90;;;;;;5058157;28;20059;-78
2022/09/14 02:19:13;;;;;;;18.08;4.35;;;15.60;99.90;;;;;;5076007;28;20052;-79
2022/09/14 02:21:41;;;;;;;13.70;4.43;;;15.60;99.90;;;;;;5057076;28;20037;-77
2022/09/14 02:24:09;;;;;;;15.93;4.30;;;15.60;99.90;;;;;;5075729;28;20383;-79
2022/09/14 02:26:37;;;;;;;;;;;15.50;99.90;;;;;;5076338;28;20044;-76
2022/09/14 02:29:05;;;;;;;14.57;3.72;;;15.50;99.90;;;;;;5074477;28;19921;-78
2022/09/14 02:31:54;;;;;;;17.95;3.50;;;15.50;99.90;;;;;;5058081;28;20040;-77
2022/09/14 02:34:37;;;;;;;12.10;3.65;;;15.50;99.90;;;;;;5056985;28;20047;-77
2022/09/14 02:37:33;;;;;;;13.93;3.63;;;15.50;99.90;;;;;;5075706;28;20040;-77
2022/09/14 02:40:20;;;;;;;13.25;3.67;;;15.50;99.90;;;;;;5062859;28;20056;-77
2022/09/14 02:42:59;;;;;;;18.55;4.72;;;15.50;99.90;;;;;;5058267;28;20056;-79
2022/09/14 02:45:26;;;;;;;18.60;4.38;;;15.50;99.90;;;;;;5058297;28;20044;-77
2022/09/14 02:51:11;;;;;;;17.38;5.80;;;15.50;99.90;;;;;;5133428;27;20691;-79
2022/09/14 02:53:44;;;;;;;17.58;6.47;;;15.50;99.90;;;;;;5111290;28;20040;-77
2022/09/14 02:56:13;;;;;;;20.23;7.80;;;15.50;99.90;;;;;;5094981;28;20051;-79
2022/09/14 02:58:43;;;;;;;24.73;9.30;;;15.50;99.90;;;;;;5112419;28;20067;-77
2022/09/14 03:01:17;;;;;;;27.42;11.40;;;15.50;99.90;;;;;;5111307;28;20048;-78
2022/09/14 03:03:45;;;;;;;26.38;12.00;;;15.50;99.90;;;;;;5113033;28;20066;-79
2022/09/14 03:06:13;;;;;;;27.65;13.40;;;15.50;99.90;;;;;;5094489;28;20043;-78
2022/09/14 03:08:41;;;;;;;35.35;16.23;;;15.50;99.90;;;;;;5093621;28;20051;-78
2022/09/14 03:11:08;;;;;;;32.28;16.00;;;15.50;99.90;;;;;;5112342;28;20058;-78
2022/09/14 03:13:36;;;;;;;45.08;18.13;;;15.50;99.90;;;;;;5111112;28;20046;-78
2022/09/14 03:16:06;;;;;;;38.80;17.90;;;15.50;99.90;;;;;;5094233;28;20055;-77
2022/09/14 03:18:35;;;;;;;40.30;18.17;;;15.60;99.90;;;;;;5112323;28;20047;-81
2022/09/14 03:21:10;;;;;;;41.38;18.23;;;15.60;99.90;;;;;;5110958;28;20044;-78
2022/09/14 03:23:46;;;;;;;45.03;19.50;;;15.60;99.90;;;;;;5112430;28;20044;-80
2022/09/14 03:26:17;;;;;;;38.03;18.77;;;15.60;99.90;;;;;;5094077;28;20055;-78
2022/09/14 03:28:52;;;;;;;44.47;19.95;;;15.50;99.90;;;;;;5110887;28;20051;-77
2022/09/14 03:31:20;;;;;;;49.22;21.48;;;15.50;99.90;;;;;;5111939;28;20122;-80
2022/09/14 03:33:54;;;;;;;49.95;21.80;;;15.50;99.90;;;;;;5093166;28;20048;-76
2022/09/14 03:36:22;;;;;;;52.63;22.48;;;15.50;99.90;;;;;;5111780;28;20043;-78
2022/09/14 03:38:56;;;;;;;42.67;21.85;;;15.50;99.90;;;;;;5093980;28;20043;-80
2022/09/14 03:41:24;;;;;;;58.78;23.15;;;15.50;99.90;;;;;;5093155;28;20043;-79
2022/09/14 03:43:52;;;;;;;52.42;22.08;;;15.50;99.90;;;;;;5111964;28;20048;-79
2022/09/14 03:46:22;;;;;;;48.58;22.02;;;15.60;99.90;;;;;;5094056;28;20040;-78
2022/09/14 03:48:51;;;;;;;50.30;22.30;;;15.60;99.90;;;;;;5092638;28;20378;-81
2022/09/14 03:51:18;;;;;;;52.38;24.33;;;15.50;99.90;;;;;;5111415;28;20451;-79
2022/09/14 03:53:46;;;;;;;69.28;24.13;;;15.50;99.90;;;;;;5076217;28;20050;-80
2022/09/14 03:56:19;;;;;;;57.20;23.88;;;15.50;99.90;;;;;;5111365;28;20054;-77
2022/09/14 03:58:47;;;;;;;61.65;25.98;;;15.50;99.90;;;;;;5093865;28;20036;-80
2022/09/14 04:01:18;;;;;;;63.97;26.48;;;15.50;99.90;;;;;;5101998;28;20382;-80
2022/09/14 04:03:47;;;;;;;63.67;25.70;;;15.50;99.90;;;;;;5097698;28;20044;-79
2022/09/14 04:06:16;;;;;;;61.90;26.27;;;15.40;99.90;;;;;;5097639;28;20473;-80
2022/09/14 04:08:45;;;;;;;55.47;23.95;;;15.50;99.90;;;;;;5096744;28;20035;-80
2022/09/14 04:11:19;;;;;;;55.42;24.40;;;15.50;99.90;;;;;;5097390;28;20470;-79
2022/09/14 04:13:47;;;;;;;52.55;23.63;;;15.50;99.90;;;;;;5096534;28;20055;-76
2022/09/14 04:16:16;;;;;;;56.47;24.58;;;15.50;99.90;;;;;;5097345;28;20052;-76
2022/09/14 04:18:44;;;;;;;55.88;25.48;;;15.50;99.90;;;;;;5098145;28;20037;-77
2022/09/14 04:21:21;;;;;;;53.53;23.80;;;15.40;99.90;;;;;;5078857;28;20063;-78
2022/09/14 04:23:51;;;;;;;54.33;26.50;;;15.40;99.90;;;;;;5079897;28;20044;-80
2022/09/14 04:26:39;;;;;;;59.78;26.10;;;15.40;99.90;;;;;;5096998;28;20048;-79
2022/09/14 04:29:07;;;;;;;71.68;27.52;;;15.40;99.90;;;;;;5096061;28;20055;-80
2022/09/14 04:31:35;;;;;;;64.75;27.67;;;15.50;99.90;;;;;;5079647;28;20363;-79
2022/09/14 04:34:03;;;;;;;57.47;27.85;;;15.50;99.90;;;;;;5078617;28;20398;-80
2022/09/14 04:36:31;;;;;;;65.53;27.92;;;15.50;99.90;;;;;;5097022;28;20478;-78
2022/09/14 04:39:01;;;;;;;76.53;28.65;;;15.50;99.90;;;;;;5079277;28;20048;-80
2022/09/14 04:41:30;;;;;;;75.88;30.60;;;15.50;99.90;;;;;;5078119;28;20485;-77
2022/09/14 04:43:59;;;;;;;85.95;32.67;;;15.40;99.90;;;;;;5079619;28;20125;-79
2022/09/14 04:46:32;;;;;;;98.22;34.97;;;15.40;99.90;;;;;;5096930;28;20048;-79
2022/09/14 04:49:00;;;;;;;95.22;33.97;;;15.40;99.90;;;;;;5095702;28;20048;-77
2022/09/14 04:51:31;;;;;;;73.07;32.45;;;15.40;99.90;;;;;;5096634;28;20044;-77
2022/09/14 04:54:00;;;;;;;87.78;31.45;;;15.40;99.90;;;;;;5078131;28;20040;-79
2022/09/14 04:56:30;;;;;;;82.30;32.10;;;15.40;99.90;;;;;;5096575;28;20051;-80
2022/09/14 04:59:00;;;;;;;80.45;31.60;;;15.40;99.90;;;;;;5079322;28;20040;-80
2022/09/14 05:01:39;;;;;;;80.65;31.35;;;15.40;99.90;;;;;;5077821;28;20048;-79
2022/09/14 05:04:08;;;;;;;88.32;32.83;;;15.40;99.90;;;;;;5079059;28;20059;-79
2022/09/14 05:06:38;;;;;;;86.93;32.15;;;15.40;99.90;;;;;;5096357;28;20044;-78
2022/09/14 05:09:17;;;;;;;79.10;30.98;;;15.40;99.90;;;;;;5095347;28;20044;-79
2022/09/14 05:11:44;;;;;;;;;;;15.40;99.90;;;;;;5079276;28;20051;-80
2022/09/14 05:14:13;;;;;;;79.13;30.85;;;15.40;99.90;;;;;;5060483;28;20100;-77
2022/09/14 05:16:42;;;;;;;76.65;32.13;;;15.40;99.90;;;;;;5078530;28;20356;-78
2022/09/14 05:19:13;;;;;;;74.50;30.52;;;15.40;99.90;;;;;;5096103;28;20048;-78
2022/09/14 05:21:40;;;;;;;84.70;32.47;;;15.40;99.90;;;;;;5077548;28;20055;-78
2022/09/14 05:24:14;;;;;;;91.70;33.75;;;15.50;99.90;;;;;;5078621;28;20044;-78
2022/09/14 05:26:43;;;;;;;79.18;31.20;;;15.40;99.90;;;;;;5061914;28;20048;-78
2022/09/14 05:29:13;;;;;;;80.68;32.72;;;15.40;99.90;;;;;;5077195;28;20050;-79
2022/09/14 05:31:41;;;;;;;83.95;33.20;;;15.40;99.90;;;;;;5095939;28;20043;-77
2022/09/14 05:34:09;;;;;;;81.40;32.28;;;15.50;99.90;;;;;;5095300;28;20051;-77
2022/09/14 05:36:38;;;;;;;62.25;30.02;;;15.40;99.90;;;;;;5076810;28;20036;-76
2022/09/14 05:39:07;;;;;;;75.82;31.75;;;15.40;99.90;;;;;;5096277;28;20438;-77
2022/09/14 05:41:36;;;;;;;66.30;30.52;;;15.50;99.90;;;;;;5076945;28;20074;-76
2022/09/14 05:44:05;;;;;;;53.88;25.88;;;15.50;99.90;;;;;;5078598;28;20079;-78
2022/09/14 05:46:33;;;;;;;62.20;26.60;;;15.40;99.90;;;;;;5095475;28;20055;-77
2022/09/14 05:49:00;;;;;;;;;;;15.40;99.90;;;;;;5095102;28;20455;-77
2022/09/14 05:51:28;;;;;;;63.20;27.25;;;15.60;99.90;;;;;;5095809;28;19920;-77
2022/09/14 05:53:57;;;;;;;61.95;26.65;;;15.40;99.90;;;;;;5095118;28;20051;-77
2022/09/14 05:56:27;;;;;;;47.15;22.05;;;15.40;99.90;;;;;;5095384;28;20378;-77
2022/09/14 05:58:57;;;;;;;59.53;24.85;;;15.30;99.90;;;;;;5061868;28;20040;-76
2022/09/14 06:01:29;;;;;;;58.60;24.63;;;15.30;99.90;;;;;;5094693;28;20495;-77
2022/09/14 06:04:01;;;;;;;58.67;24.55;;;15.40;99.90;;;;;;5061320;28;20047;-77
2022/09/14 06:06:29;;;;;;;47.90;22.75;;;15.40;99.90;;;;;;5095217;28;20047;-77
2022/09/14 06:08:58;;;;;;;35.97;18.63;;;15.40;99.90;;;;;;5094140;28;20054;-79
2022/09/14 06:11:31;;;;;;;37.90;17.63;;;15.40;99.90;;;;;;5095221;28;20040;-77
2022/09/14 06:13:59;;;;;;;35.42;16.77;;;15.40;99.90;;;;;;5094361;28;20378;-78
2022/09/14 06:16:27;;;;;;;42.53;18.13;;;15.30;99.90;;;;;;5077438;28;20040;-76
2022/09/14 06:18:57;;;;;;;37.17;16.20;;;15.30;99.90;;;;;;5077541;28;20055;-77
2022/09/14 06:21:33;;;;;;;39.97;16.00;;;15.30;99.90;;;;;;5093961;28;20454;-78
2022/09/14 06:24:01;;;;;;;30.38;16.35;;;15.30;99.90;;;;;;5077090;28;20048;-77
2022/09/14 06:26:29;;;;;;;29.88;16.73;;;15.20;99.90;;;;;;5095000;28;20063;-77
2022/09/14 06:28:57;;;;;;;32.00;15.23;;;15.20;99.90;;;;;;5093883;28;20055;-78
2022/09/14 06:31:24;;;;;;;35.60;14.48;;;15.30;99.90;;;;;;5077418;28;20036;-78
2022/09/14 06:33:52;;;;;;;33.40;15.00;;;15.20;99.90;;;;;;5093841;28;20383;-76
2022/09/14 06:36:22;;;;;;;33.20;15.15;;;15.20;99.90;;;;;;5077865;28;20040;-77
2022/09/14 06:38:51;;;;;;;29.58;16.85;;;15.20;99.90;;;;;;5094954;28;20044;-78
2022/09/14 06:41:21;;;;;;;37.97;16.13;;;15.20;99.90;;;;;;5076089;28;20051;-78
2022/09/14 06:43:49;;;;;;;34.92;15.23;;;15.30;99.90;;;;;;5077298;28;20066;-78
2022/09/14 06:46:20;;;;;;;30.17;14.15;;;15.20;99.90;;;;;;5077074;28;20458;-77
2022/09/14 06:49:06;;;;;;;33.88;14.10;;;15.30;99.90;;;;;;5075856;28;20052;-79
2022/09/14 06:51:42;;;;;;;27.45;14.52;;;15.30;99.90;;;;;;5094543;28;20044;-77
2022/09/14 06:54:14;;;;;;;33.67;13.45;;;15.20;99.90;;;;;;5093127;28;20044;-78
2022/09/14 06:56:44;;;;;;;22.52;11.00;;;15.30;99.90;;;;;;5076484;28;20044;-77
2022/09/14 06:59:14;;;;;;;22.25;11.10;;;15.20;99.90;;;;;;5082681;28;20044;-78
2022/09/14 07:01:48;;;;;;;28.75;11.88;;;15.30;99.90;;;;;;5073208;28;20067;-79
2022/09/14 07:04:17;;;;;;;29.45;10.98;;;15.20;99.90;;;;;;5074376;28;20048;-76
2022/09/14 07:06:47;;;;;;;26.85;12.50;;;15.20;99.90;;;;;;5056695;28;20045;-78
2022/09/14 07:09:17;;;;;;;26.73;10.23;;;15.20;99.90;;;;;;5073370;28;20498;-79
2022/09/14 07:11:45;;;;;;;29.70;11.23;;;15.30;99.90;;;;;;5056744;28;20048;-78
2022/09/14 07:14:12;;;;;;;31.75;11.43;;;15.30;99.90;;;;;;5055927;28;20055;-76
2022/09/14 07:16:40;;;;;;;25.20;11.70;;;15.30;99.90;;;;;;5073937;28;20044;-76
2022/09/14 07:19:13;;;;;;;26.73;11.55;;;15.40;99.90;;;;;;5056442;28;20056;-76
2022/09/14 07:21:41;;;;;;;23.25;10.88;;;15.40;99.90;;;;;;5055683;28;20041;-77
2022/09/14 07:24:11;;;;;;;31.85;11.95;;;15.50;99.90;;;;;;5056501;28;20064;-80
2022/09/14 07:26:43;;;;;;;24.70;11.80;;;15.50;99.90;;;;;;5074057;28;20055;-75
2022/09/14 07:29:13;;;;;;;24.75;10.95;;;15.60;99.90;;;;;;5073801;28;20466;-79
2022/09/14 07:31:50;;;;;;;25.98;11.05;;;15.60;99.90;;;;;;5067665;28;20048;-74
2022/09/14 07:34:18;;;;;;;25.73;10.55;;;15.70;99.90;;;;;;5072147;28;20052;-74
2022/09/14 07:36:46;;;;;;;24.42;9.88;;;15.80;99.90;;;;;;5095881;28;20055;-74
2022/09/14 07:39:15;;;;;;;19.25;8.48;;;15.80;99.90;;;;;;5097311;28;20052;-76
2022/09/14 07:41:43;;;;;;;23.52;9.98;;;15.80;99.90;;;;;;5096529;28;20044;-75
2022/09/14 07:44:13;;;;;;;21.33;8.90;;;15.80;99.90;;;;;;5098234;28;20474;-76
2022/09/14 07:46:43;;;;;;;26.25;9.45;;;15.80;99.90;;;;;;5098225;28;20040;-74
2022/09/14 07:49:11;;;;;;;21.63;9.15;;;15.80;99.90;;;;;;5079045;28;20067;-75
2022/09/14 07:51:40;;;;;;;24.90;10.63;;;15.80;99.90;;;;;;5098063;28;20044;-76
2022/09/14 07:54:11;;;;;;;25.63;9.38;;;15.80;99.90;;;;;;5079400;28;20459;-74
2022/09/14 07:56:39;;;;;;;24.05;9.73;;;15.80;99.90;;;;;;5080791;28;20047;-73
2022/09/14 07:59:09;;;;;;;23.67;9.50;;;15.80;99.90;;;;;;5080081;28;20048;-76
2022/09/14 08:01:56;;;;;;;25.08;10.05;;;15.80;99.90;;;;;;5079117;28;20492;-76
2022/09/14 08:04:24;;;;;;;17.35;9.23;;;15.90;99.90;;;;;;5080757;28;20044;-74
2022/09/14 08:06:52;;;;;;;28.38;10.02;;;15.90;99.90;;;;;;5079839;28;20335;-74
2022/09/14 08:09:19;;;;;;;28.50;8.75;;;15.90;99.90;;;;;;5097114;28;20047;-74
2022/09/14 08:11:47;;;;;;;22.63;9.47;;;15.90;99.90;;;;;;5097539;28;20101;-74
2022/09/14 08:14:14;;;;;;;21.75;8.80;;;15.90;99.90;;;;;;5079241;28;20281;-75
2022/09/14 08:16:42;;;;;;;19.08;8.60;;;15.90;99.90;;;;;;5097393;28;20048;-82
2022/09/14 08:19:14;;;;;;;23.30;8.90;;;15.90;99.90;;;;;;5070931;28;20044;-77
2022/09/14 08:21:43;;;;;;;25.30;9.07;;;16.00;99.90;;;;;;5077310;28;20044;-78
2022/09/14 08:24:17;;;;;;;23.48;8.65;;;16.00;99.90;;;;;;5097247;28;20044;-77
2022/09/14 08:26:46;;;;;;;24.25;8.52;;;16.10;99.90;;;;;;5096838;28;20040;-78
2022/09/14 08:29:16;;;;;;;26.30;9.23;;;16.10;99.90;;;;;;5096116;28;20462;-76
2022/09/14 08:31:45;;;;;;;23.63;8.73;;;16.20;99.90;;;;;;5078968;28;20048;-76
2022/09/14 08:34:15;;;;;;;21.08;9.27;;;16.20;99.90;;;;;;5078714;28;20063;-75
2022/09/14 08:36:44;;;;;;;18.52;9.15;;;16.30;99.90;;;;;;5097715;28;20044;-78
2022/09/14 08:39:14;;;;;;;26.70;9.45;;;16.30;99.90;;;;;;5097419;28;20470;-78
2022/09/14 08:41:49;;;;;;;22.50;9.20;;;16.50;99.90;;;;;;5062179;28;20055;-76
2022/09/14 08:44:41;;;;;;;21.77;9.48;;;16.60;99.90;;;;;;5097194;28;20044;-76
2022/09/14 08:47:18;;;;;;;22.02;9.48;;;16.60;99.90;;;;;;5078839;28;20043;-78
2022/09/14 08:49:56;;;;;;;25.00;10.02;;;16.70;99.90;;;;;;5079947;28;20048;-77
2022/09/14 08:52:31;;;;;;;;;;;16.90;99.90;;;;;;5097471;28;20474;-77
2022/09/14 08:55:08;;;;;;;20.38;8.48;;;16.90;99.90;;;;;;5095909;28;20350;-77
2022/09/14 08:57:50;;;;;;;27.65;8.43;;;17.10;99.90;;;;;;5097373;28;20378;-76
2022/09/14 09:00:22;;;;;;;25.75;8.48;;;17.20;99.90;;;;;;5078677;28;20054;-78
2022/09/14 09:03:09;;;;;;;20.10;7.43;;;17.30;99.90;;;;;;5097009;28;20044;-76
2022/09/14 09:06:07;;;;;;;16.20;7.75;;;17.40;99.90;;;;;;5079313;28;20048;-78
2022/09/14 09:08:51;;;;;;;15.38;7.53;;;17.50;99.90;;;;;;5095981;28;20043;-78
2022/09/14 09:11:24;;;;;;;18.58;7.53;;;17.50;99.90;;;;;;5097047;28;20044;-76
2022/09/14 09:13:53;;;;;;;18.35;8.10;;;17.50;99.90;;;;;;5095092;28;20052;-77
2022/09/14 09:16:22;;;;;;;17.08;7.72;;;17.60;99.90;;;;;;5096116;28;20039;-76
2022/09/14 09:19:05;;;;;;;19.10;8.30;;;17.60;99.90;;;;;;5096112;28;20043;-78
2022/09/14 09:21:42;;;;;;;24.52;7.07;;;17.60;99.90;;;;;;5077878;28;20055;-79
2022/09/14 09:24:30;;;;;;;19.45;7.03;;;17.60;99.90;;;;;;5096168;28;20051;-73
2022/09/14 09:27:15;;;;;;;23.05;7.28;;;17.60;99.90;;;;;;5095130;28;20480;-75
2022/09/14 09:29:46;;;;;;;20.85;7.15;;;17.70;99.90;;;;;;5095370;28;20052;-74
2022/09/14 09:32:18;;;;;;;17.92;6.43;;;17.70;99.90;;;;;;5095998;28;20470;-76
2022/09/14 09:35:18;;;;;;;15.88;6.63;;;17.80;99.90;;;;;;5077189;28;20047;-73
2022/09/14 09:37:54;;;;;;;22.10;6.22;;;17.80;99.90;;;;;;5077979;28;20043;-73
2022/09/14 09:40:33;;;;;;;13.75;6.88;;;17.80;99.90;;;;;;5077007;28;20047;-74
2022/09/14 09:43:10;;;;;;;20.48;6.57;;;17.80;99.90;;;;;;5077884;28;20052;-76
2022/09/14 09:45:56;;;;;;;16.85;5.57;;;17.90;99.90;;;;;;5095470;28;20052;-73
2022/09/14 09:48:30;;;;;;;22.58;6.57;;;18.00;99.90;;;;;;5076727;28;20067;-74
2022/09/14 09:51:03;;;;;;;20.35;5.90;;;18.00;99.90;;;;;;5095510;28;20052;-74
2022/09/14 09:53:33;;;;;;;15.23;5.25;;;18.00;99.90;;;;;;5077023;28;20059;-74
2022/09/14 09:56:01;;;;;;;14.93;5.93;;;18.00;99.90;;;;;;5095479;28;20044;-75
2022/09/14 09:58:38;;;;;;;19.77;5.60;;;18.10;99.90;;;;;;5094598;28;20048;-73
2022/09/14 10:01:25;;;;;;;20.95;4.93;;;18.20;99.90;;;;;;5094620;28;20048;-75
2022/09/14 10:04:07;;;;;;;19.90;5.47;;;18.30;99.90;;;;;;5095392;28;20047;-74
2022/09/14 10:06:46;;;;;;;16.92;5.60;;;18.20;99.90;;;;;;5077627;28;20047;-72
2022/09/14 10:09:28;;;;;;;20.42;5.43;;;18.30;99.90;;;;;;5076397;28;20203;-76
2022/09/14 10:12:00;;;;;;;15.73;4.63;;;18.40;99.90;;;;;;5094783;28;20040;-75
2022/09/14 10:14:27;;;;;;;24.25;4.82;;;18.50;99.90;;;;;;5076357;28;20044;-73
2022/09/14 10:17:14;;;;;;;23.88;4.60;;;18.60;99.90;;;;;;5094850;28;20051;-74
2022/09/14 10:19:48;;;;;;;16.97;4.77;;;18.60;99.90;;;;;;5077351;28;20059;-76
2022/09/14 10:22:31;;;;;;;14.40;4.28;;;18.70;99.90;;;;;;5076234;28;20288;-75
2022/09/14 10:25:12;;;;;;;19.30;5.00;;;18.70;99.90;;;;;;5077154;28;20048;-74
2022/09/14 10:27:58;;;;;;;22.77;4.57;;;18.70;99.90;;;;;;5093911;28;20040;-74
2022/09/14 10:30:38;;;;;;;14.52;3.33;;;18.80;99.90;;;;;;5094754;28;20039;-73
2022/09/14 10:33:11;;;;;;;16.88;3.53;;;18.80;99.90;;;;;;5076963;28;20048;-76
2022/09/14 10:36:00;;;;;;;14.02;3.65;;;18.90;99.90;;;;;;5093758;28;20040;-74
2022/09/14 10:38:46;;;;;;;16.30;3.70;;;18.90;99.90;;;;;;5077618;28;20055;-76
2022/09/14 10:41:33;;;;;;;20.95;3.78;;;18.60;99.90;;;;;;5076456;28;20055;-74
2022/09/14 10:44:34;;;;;;;15.98;3.08;;;18.90;99.90;;;;;;5095129;28;20055;-76
2022/09/14 10:47:36;;;;;;;21.23;3.47;;;18.80;99.90;;;;;;5093915;28;20378;-77
2022/09/14 10:50:26;;;;;;;16.60;3.67;;;18.60;99.90;;;;;;5094636;28;20071;-75
2022/09/14 10:52:54;;;;;;;19.20;3.47;;;18.50;99.90;;;;;;5077650;28;20204;-73
2022/09/14 10:55:33;;;;;;;12.95;3.25;;;18.30;99.90;;;;;;5076279;28;20044;-73
2022/09/14 10:58:16;;;;;;;18.50;3.55;;;18.10;99.90;;;;;;5094906;28;20045;-75
2022/09/14 11:00:59;;;;;;;23.98;3.53;;;18.00;99.90;;;;;;5094295;28;20044;-73
2022/09/14 11:03:41;;;;;;;20.73;3.92;;;17.80;99.90;;;;;;5076747;28;20048;-74
2022/09/14 11:06:38;;;;;;;17.58;4.13;;;17.80;99.90;;;;;;5076574;28;20141;-73
2022/09/14 11:09:17;;;;;;;15.70;3.75;;;17.70;99.90;;;;;;5093373;28;20040;-74
2022/09/14 11:12:06;;;;;;;16.48;3.72;;;17.60;99.90;;;;;;5079376;28;20059;-75
2022/09/14 11:14:58;;;;;;;14.48;4.32;;;17.60;99.90;;;;;;5079680;28;20402;-74
2022/09/14 11:17:44;;;;;;;13.00;3.97;;;17.70;99.90;;;;;;5080216;28;20055;-74
2022/09/14 11:20:42;;;;;;;15.65;4.28;;;17.70;99.90;;;;;;5079880;28;20044;-74
2022/09/14 11:23:50;;;;;;;16.35;4.65;;;17.80;99.90;;;;;;5098405;28;20052;-74
2022/09/14 11:26:40;;;;;;;18.65;4.53;;;18.00;99.90;;;;;;5080471;28;20470;-74
2022/09/14 11:29:33;;;;;;;21.08;4.55;;;18.20;99.90;;;;;;5097221;28;20048;-75
2022/09/14 11:32:20;;;;;;;21.15;4.70;;;18.40;99.90;;;;;;5079994;28;20063;-73
2022/09/14 11:35:11;;;;;;;20.90;4.50;;;18.50;99.90;;;;;;5079551;28;20048;-73
2022/09/14 11:38:09;;;;;;;15.30;4.72;;;18.50;99.90;;;;;;5098043;28;20047;-75
2022/09/14 11:40:59;;;;;;;16.75;4.28;;;18.40;99.90;;;;;;5097123;28;20040;-74
2022/09/14 11:43:38;;;;;;;14.95;4.13;;;18.70;99.90;;;;;;5098003;28;20048;-75
2022/09/14 11:46:07;;;;;;;15.55;4.32;;;18.90;99.90;;;;;;5078612;28;20048;-76
2022/09/14 11:48:50;;;;;;;16.00;4.10;;;19.20;99.90;;;;;;5096842;28;20052;-75
2022/09/14 11:51:40;;;;;;;11.45;2.85;;;19.50;99.90;;;;;;5079952;28;20374;-74
2022/09/14 11:54:20;;;;;;;15.38;3.85;;;19.70;99.90;;;;;;5096692;28;20045;-75
2022/09/14 11:57:00;;;;;;;10.43;2.65;;;19.70;99.90;;;;;;5079938;28;20051;-74
2022/09/14 11:59:39;;;;;;;15.63;2.72;;;19.80;99.90;;;;;;5080142;28;20470;-74
2022/09/14 12:02:22;;;;;;;10.45;2.40;;;19.90;99.90;;;;;;5096619;28;20465;-76
2022/09/14 12:05:09;;;;;;;10.50;2.25;;;19.90;99.90;;;;;;5097422;28;20040;-74
2022/09/14 12:07:44;;;;;;;10.48;2.50;;;20.00;99.90;;;;;;5078738;28;20055;-74
2022/09/14 12:10:18;;;;;;;13.25;1.90;;;20.10;99.90;;;;;;5079913;28;20051;-73
2022/09/14 12:13:04;;;;;;;8.93;2.00;;;20.20;99.90;;;;;;5079471;28;20048;-74
2022/09/14 12:15:36;;;;;;;12.40;1.85;;;20.40;99.90;;;;;;5096171;28;20366;-75
2022/09/14 12:18:04;;;;;;;10.80;1.95;;;20.60;99.90;;;;;;5063181;28;20048;-75
2022/09/14 12:20:34;;;;;;;10.18;1.80;;;20.80;99.90;;;;;;5078854;28;20044;-74
2022/09/14 12:23:23;;;;;;;11.43;1.98;;;20.90;99.90;;;;;;5097014;28;20048;-75
2022/09/14 12:26:06;;;;;;;7.22;1.77;;;21.10;99.90;;;;;;5079260;28;20481;-75
2022/09/14 12:28:39;;;;;;;14.38;2.22;;;21.10;99.90;;;;;;5096161;28;20052;-75
2022/09/14 12:31:11;;;;;;;9.93;1.77;;;21.10;99.90;;;;;;5079273;28;20382;-74
2022/09/14 12:33:42;;;;;;;8.57;1.55;;;20.90;99.90;;;;;;5095952;28;20040;-75
2022/09/14 12:36:30;;;;;;;9.45;1.90;;;20.80;99.90;;;;;;5079114;28;20040;-73
2022/09/14 12:38:58;;;;;;;7.88;1.80;;;20.70;99.90;;;;;;5078971;28;20039;-77
2022/09/14 12:41:26;;;;;;;9.70;2.08;;;20.70;99.90;;;;;;5078283;28;20055;-82
2022/09/14 12:43:54;;;;;;;9.02;1.67;;;20.60;99.90;;;;;;5079260;28;20054;-75
2022/09/14 12:46:22;;;;;;;7.60;1.30;;;20.60;99.90;;;;;;5062537;28;20067;-73
2022/09/14 12:48:51;;;;;;;9.20;1.55;;;20.60;99.90;;;;;;5095374;28;20055;-74
2022/09/14 12:51:41;;;;;;;9.73;1.77;;;20.60;99.90;;;;;;5079323;28;20378;-74
2022/09/14 12:54:08;;;;;;;7.93;1.40;;;20.80;99.90;;;;;;5095238;28;20048;-74
2022/09/14 12:56:36;;;;;;;8.73;1.80;;;20.90;99.90;;;;;;5096622;28;20051;-74
2022/09/14 12:59:31;;;;;;;6.43;1.83;;;21.20;99.90;;;;;;5096436;28;20470;-75
2022/09/14 13:01:59;;;;;;;11.65;1.80;;;21.50;99.90;;;;;;5095599;28;20378;-75
2022/09/14 13:04:30;;;;;;;9.80;1.60;;;21.60;99.90;;;;;;5096903;28;20359;-75
2022/09/14 13:07:01;;;;;;;8.05;1.50;;;21.60;99.90;;;;;;5095654;28;20044;-76
2022/09/14 13:09:30;;;;;;;8.10;1.52;;;21.60;99.90;;;;;;5078689;28;20051;-74
2022/09/14 13:12:04;;;;;;;10.48;1.83;;;21.60;99.90;;;;;;5096334;28;20040;-74
2022/09/14 13:14:46;;;;;;;11.30;2.20;;;21.60;99.90;;;;;;5077809;28;20063;-74